sensor_id;sensor_type;location;lat;lon;timestamp;P1;durP1;ratioP1;P2;durP2;ratioP2
80195;SDS011;69516;42.050;21.516;2023-05-07T00:00:44;12.27;;;7.57;;
80195;SDS011;69516;42.050;21.516;2023-05-07T00:03:10;11.25;;;7.38;;
80195;SDS011;69516;42.050;21.516;2023-05-07T00:05:38;12.30;;;7.63;;
80195;SDS011;69516;42.050;21.516;2023-05-07T00:08:06;11.35;;;7.07;;
80195;SDS011;69516;42.050;21.516;2023-05-07T00:10:33;12.02;;;7.53;;
80195;SDS011;69516;42.050;21.516;2023-05-07T00:12:59;12.20;;;7.15;;
80195;SDS011;69516;42.050;21.516;2023-05-07T00:15:25;12.38;;;7.20;;
80195;SDS011;69516;42.050;21.516;2023-05-07T00:17:51;10.85;;;6.75;;
80195;SDS011;69516;42.050;21.516;2023-05-07T00:20:17;12.02;;;7.40;;
80195;SDS011;69516;42.050;21.516;2023-05-07T00:22:44;12.05;;;7.35;;
80195;SDS011;69516;42.050;21.516;2023-05-07T00:25:10;11.20;;;7.05;;
80195;SDS011;69516;42.050;21.516;2023-05-07T00:27:36;11.70;;;6.57;;
80195;SDS011;69516;42.050;21.516;2023-05-07T00:30:02;11.73;;;6.90;;
80195;SDS011;69516;42.050;21.516;2023-05-07T00:32:29;14.15;;;7.40;;
80195;SDS011;69516;42.050;21.516;2023-05-07T00:34:55;11.30;;;7.35;;
80195;SDS011;69516;42.050;21.516;2023-05-07T00:37:21;12.65;;;7.47;;
80195;SDS011;69516;42.050;21.516;2023-05-07T00:39:47;12.45;;;8.00;;
80195;SDS011;69516;42.050;21.516;2023-05-07T00:42:13;10.25;;;6.63;;
80195;SDS011;69516;42.050;21.516;2023-05-07T00:44:41;12.50;;;7.35;;
80195;SDS011;69516;42.050;21.516;2023-05-07T00:47:07;13.18;;;7.30;;
80195;SDS011;69516;42.050;21.516;2023-05-07T00:49:41;11.82;;;7.60;;
80195;SDS011;69516;42.050;21.516;2023-05-07T00:52:09;11.50;;;6.75;;
80195;SDS011;69516;42.050;21.516;2023-05-07T00:54:37;11.07;;;8.00;;
80195;SDS011;69516;42.050;21.516;2023-05-07T00:57:03;11.20;;;6.95;;
80195;SDS011;69516;42.050;21.516;2023-05-07T00:59:30;12.07;;;6.95;;
80195;SDS011;69516;42.050;21.516;2023-05-07T01:01:56;16.35;;;7.53;;
80195;SDS011;69516;42.050;21.516;2023-05-07T01:04:22;11.75;;;7.20;;
80195;SDS011;69516;42.050;21.516;2023-05-07T01:06:49;15.35;;;7.95;;
80195;SDS011;69516;42.050;21.516;2023-05-07T01:09:15;13.68;;;8.00;;
80195;SDS011;69516;42.050;21.516;2023-05-07T01:11:42;16.67;;;9.43;;
80195;SDS011;69516;42.050;21.516;2023-05-07T01:14:09;12.63;;;7.95;;
80195;SDS011;69516;42.050;21.516;2023-05-07T01:16:36;14.35;;;8.25;;
80195;SDS011;69516;42.050;21.516;2023-05-07T01:19:02;14.20;;;8.73;;
80195;SDS011;69516;42.050;21.516;2023-05-07T01:21:29;14.30;;;8.80;;
80195;SDS011;69516;42.050;21.516;2023-05-07T01:23:59;13.48;;;8.60;;
80195;SDS011;69516;42.050;21.516;2023-05-07T01:26:25;13.90;;;8.35;;
80195;SDS011;69516;42.050;21.516;2023-05-07T01:28:51;13.57;;;8.10;;
80195;SDS011;69516;42.050;21.516;2023-05-07T01:31:18;16.55;;;8.05;;
80195;SDS011;69516;42.050;21.516;2023-05-07T01:33:44;13.98;;;7.72;;
80195;SDS011;69516;42.050;21.516;2023-05-07T01:36:11;15.90;;;7.72;;
80195;SDS011;69516;42.050;21.516;2023-05-07T01:38:38;11.90;;;7.30;;
80195;SDS011;69516;42.050;21.516;2023-05-07T01:41:05;12.90;;;7.22;;
80195;SDS011;69516;42.050;21.516;2023-05-07T01:43:31;12.65;;;7.15;;
80195;SDS011;69516;42.050;21.516;2023-05-07T01:45:58;14.00;;;8.05;;
80195;SDS011;69516;42.050;21.516;2023-05-07T01:48:24;12.88;;;8.05;;
80195;SDS011;69516;42.050;21.516;2023-05-07T01:50:51;13.75;;;8.63;;
80195;SDS011;69516;42.050;21.516;2023-05-07T01:53:18;14.50;;;8.38;;
80195;SDS011;69516;42.050;21.516;2023-05-07T01:55:44;13.82;;;8.50;;
80195;SDS011;69516;42.050;21.516;2023-05-07T01:58:10;14.13;;;8.18;;
80195;SDS011;69516;42.050;21.516;2023-05-07T02:00:36;13.02;;;8.07;;
80195;SDS011;69516;42.050;21.516;2023-05-07T02:03:02;15.90;;;8.43;;
80195;SDS011;69516;42.050;21.516;2023-05-07T02:05:29;14.25;;;8.25;;
80195;SDS011;69516;42.050;21.516;2023-05-07T02:07:55;13.18;;;7.97;;
80195;SDS011;69516;42.050;21.516;2023-05-07T02:10:21;13.65;;;8.32;;
80195;SDS011;69516;42.050;21.516;2023-05-07T02:12:47;16.83;;;9.30;;
80195;SDS011;69516;42.050;21.516;2023-05-07T02:15:14;17.23;;;9.70;;
80195;SDS011;69516;42.050;21.516;2023-05-07T02:17:57;16.35;;;9.20;;
80195;SDS011;69516;42.050;21.516;2023-05-07T02:20:24;16.65;;;9.13;;
80195;SDS011;69516;42.050;21.516;2023-05-07T02:22:50;14.63;;;8.75;;
80195;SDS011;69516;42.050;21.516;2023-05-07T02:25:16;12.82;;;8.50;;
80195;SDS011;69516;42.050;21.516;2023-05-07T02:27:42;14.13;;;8.02;;
80195;SDS011;69516;42.050;21.516;2023-05-07T02:30:09;16.35;;;8.88;;
80195;SDS011;69516;42.050;21.516;2023-05-07T02:32:35;16.98;;;9.18;;
80195;SDS011;69516;42.050;21.516;2023-05-07T02:35:02;15.18;;;8.93;;
80195;SDS011;69516;42.050;21.516;2023-05-07T02:37:28;12.43;;;8.25;;
80195;SDS011;69516;42.050;21.516;2023-05-07T02:39:54;14.05;;;9.23;;
80195;SDS011;69516;42.050;21.516;2023-05-07T02:42:20;15.88;;;9.05;;
80195;SDS011;69516;42.050;21.516;2023-05-07T02:44:46;16.27;;;9.60;;
80195;SDS011;69516;42.050;21.516;2023-05-07T02:47:13;16.60;;;9.80;;
80195;SDS011;69516;42.050;21.516;2023-05-07T02:49:40;16.70;;;10.13;;
80195;SDS011;69516;42.050;21.516;2023-05-07T02:52:06;19.08;;;11.02;;
80195;SDS011;69516;42.050;21.516;2023-05-07T02:54:33;16.58;;;10.35;;
80195;SDS011;69516;42.050;21.516;2023-05-07T02:56:59;15.43;;;10.32;;
80195;SDS011;69516;42.050;21.516;2023-05-07T02:59:26;16.27;;;9.70;;
80195;SDS011;69516;42.050;21.516;2023-05-07T03:01:52;13.68;;;8.88;;
80195;SDS011;69516;42.050;21.516;2023-05-07T03:04:18;13.32;;;8.32;;
80195;SDS011;69516;42.050;21.516;2023-05-07T03:06:44;17.95;;;10.38;;
80195;SDS011;69516;42.050;21.516;2023-05-07T03:09:10;15.68;;;9.45;;
80195;SDS011;69516;42.050;21.516;2023-05-07T03:11:37;14.45;;;8.95;;
80195;SDS011;69516;42.050;21.516;2023-05-07T03:14:03;15.68;;;9.60;;
80195;SDS011;69516;42.050;21.516;2023-05-07T03:16:29;16.98;;;10.15;;
80195;SDS011;69516;42.050;21.516;2023-05-07T03:18:56;17.83;;;9.73;;
80195;SDS011;69516;42.050;21.516;2023-05-07T03:21:22;17.45;;;10.60;;
80195;SDS011;69516;42.050;21.516;2023-05-07T03:23:48;18.10;;;10.05;;
80195;SDS011;69516;42.050;21.516;2023-05-07T03:26:14;15.15;;;9.77;;
80195;SDS011;69516;42.050;21.516;2023-05-07T03:28:40;18.25;;;9.80;;
80195;SDS011;69516;42.050;21.516;2023-05-07T03:31:06;13.82;;;9.10;;
80195;SDS011;69516;42.050;21.516;2023-05-07T03:33:33;17.83;;;9.90;;
80195;SDS011;69516;42.050;21.516;2023-05-07T03:36:00;15.60;;;8.35;;
80195;SDS011;69516;42.050;21.516;2023-05-07T03:38:26;13.75;;;8.48;;
80195;SDS011;69516;42.050;21.516;2023-05-07T03:40:52;15.05;;;8.98;;
80195;SDS011;69516;42.050;21.516;2023-05-07T03:43:18;13.10;;;7.93;;
80195;SDS011;69516;42.050;21.516;2023-05-07T03:45:44;14.00;;;7.68;;
80195;SDS011;69516;42.050;21.516;2023-05-07T03:48:11;13.48;;;8.38;;
80195;SDS011;69516;42.050;21.516;2023-05-07T03:50:37;14.52;;;9.27;;
80195;SDS011;69516;42.050;21.516;2023-05-07T03:53:03;20.00;;;8.93;;
80195;SDS011;69516;42.050;21.516;2023-05-07T03:55:29;15.32;;;8.82;;
80195;SDS011;69516;42.050;21.516;2023-05-07T03:57:56;20.48;;;8.80;;
80195;SDS011;69516;42.050;21.516;2023-05-07T04:00:22;15.05;;;8.55;;
80195;SDS011;69516;42.050;21.516;2023-05-07T04:02:48;16.08;;;8.20;;
80195;SDS011;69516;42.050;21.516;2023-05-07T04:05:14;12.32;;;7.72;;
80195;SDS011;69516;42.050;21.516;2023-05-07T04:07:41;11.73;;;7.38;;
80195;SDS011;69516;42.050;21.516;2023-05-07T04:10:07;12.45;;;7.85;;
80195;SDS011;69516;42.050;21.516;2023-05-07T04:12:33;14.18;;;7.95;;
80195;SDS011;69516;42.050;21.516;2023-05-07T04:14:59;13.95;;;8.52;;
80195;SDS011;69516;42.050;21.516;2023-05-07T04:17:25;13.13;;;8.32;;
80195;SDS011;69516;42.050;21.516;2023-05-07T04:19:52;14.02;;;7.95;;
80195;SDS011;69516;42.050;21.516;2023-05-07T04:22:18;15.25;;;8.32;;
80195;SDS011;69516;42.050;21.516;2023-05-07T04:24:44;12.70;;;7.57;;
80195;SDS011;69516;42.050;21.516;2023-05-07T04:27:10;12.55;;;7.57;;
80195;SDS011;69516;42.050;21.516;2023-05-07T04:29:37;12.82;;;7.10;;
80195;SDS011;69516;42.050;21.516;2023-05-07T04:32:07;12.60;;;7.88;;
80195;SDS011;69516;42.050;21.516;2023-05-07T04:34:33;12.57;;;7.63;;
80195;SDS011;69516;42.050;21.516;2023-05-07T04:36:59;13.48;;;7.47;;
80195;SDS011;69516;42.050;21.516;2023-05-07T04:39:25;13.38;;;7.45;;
80195;SDS011;69516;42.050;21.516;2023-05-07T04:41:51;10.93;;;7.25;;
80195;SDS011;69516;42.050;21.516;2023-05-07T04:44:18;12.35;;;7.18;;
80195;SDS011;69516;42.050;21.516;2023-05-07T04:46:44;11.25;;;6.72;;
80195;SDS011;69516;42.050;21.516;2023-05-07T04:49:10;12.45;;;7.30;;
80195;SDS011;69516;42.050;21.516;2023-05-07T04:51:36;10.40;;;6.88;;
80195;SDS011;69516;42.050;21.516;2023-05-07T04:54:03;11.43;;;6.57;;
80195;SDS011;69516;42.050;21.516;2023-05-07T04:56:29;10.65;;;7.03;;
80195;SDS011;69516;42.050;21.516;2023-05-07T04:58:55;11.27;;;6.95;;
80195;SDS011;69516;42.050;21.516;2023-05-07T05:01:22;11.05;;;6.72;;
80195;SDS011;69516;42.050;21.516;2023-05-07T05:03:48;10.95;;;6.68;;
80195;SDS011;69516;42.050;21.516;2023-05-07T05:06:14;10.73;;;6.75;;
80195;SDS011;69516;42.050;21.516;2023-05-07T05:08:40;14.15;;;7.05;;
80195;SDS011;69516;42.050;21.516;2023-05-07T05:11:06;12.48;;;7.07;;
80195;SDS011;69516;42.050;21.516;2023-05-07T05:13:32;10.80;;;6.93;;
80195;SDS011;69516;42.050;21.516;2023-05-07T05:15:59;11.07;;;7.53;;
80195;SDS011;69516;42.050;21.516;2023-05-07T05:18:25;12.02;;;7.93;;
80195;SDS011;69516;42.050;21.516;2023-05-07T05:20:51;12.32;;;7.65;;
80195;SDS011;69516;42.050;21.516;2023-05-07T05:23:18;12.02;;;7.82;;
80195;SDS011;69516;42.050;21.516;2023-05-07T05:25:44;9.27;;;6.90;;
80195;SDS011;69516;42.050;21.516;2023-05-07T05:28:11;10.98;;;7.68;;
80195;SDS011;69516;42.050;21.516;2023-05-07T05:30:38;9.60;;;6.93;;
80195;SDS011;69516;42.050;21.516;2023-05-07T05:33:05;12.52;;;7.13;;
80195;SDS011;69516;42.050;21.516;2023-05-07T05:35:31;10.82;;;7.95;;
80195;SDS011;69516;42.050;21.516;2023-05-07T05:37:57;11.57;;;7.22;;
80195;SDS011;69516;42.050;21.516;2023-05-07T05:40:23;11.10;;;7.57;;
80195;SDS011;69516;42.050;21.516;2023-05-07T05:45:43;12.10;;;7.43;;
80195;SDS011;69516;42.050;21.516;2023-05-07T05:48:09;10.57;;;6.85;;
80195;SDS011;69516;42.050;21.516;2023-05-07T05:50:35;11.40;;;7.35;;
80195;SDS011;69516;42.050;21.516;2023-05-07T05:53:02;9.55;;;7.13;;
80195;SDS011;69516;42.050;21.516;2023-05-07T05:55:28;10.30;;;6.80;;
80195;SDS011;69516;42.050;21.516;2023-05-07T05:57:55;9.98;;;7.00;;
80195;SDS011;69516;42.050;21.516;2023-05-07T06:00:22;9.50;;;6.45;;
80195;SDS011;69516;42.050;21.516;2023-05-07T06:02:48;9.10;;;6.40;;
80195;SDS011;69516;42.050;21.516;2023-05-07T06:05:14;11.43;;;7.75;;
80195;SDS011;69516;42.050;21.516;2023-05-07T06:07:41;11.00;;;7.53;;
80195;SDS011;69516;42.050;21.516;2023-05-07T06:10:07;11.50;;;6.97;;
80195;SDS011;69516;42.050;21.516;2023-05-07T06:12:33;11.18;;;7.15;;
80195;SDS011;69516;42.050;21.516;2023-05-07T06:14:59;10.50;;;7.65;;
80195;SDS011;69516;42.050;21.516;2023-05-07T06:17:26;10.10;;;7.30;;
80195;SDS011;69516;42.050;21.516;2023-05-07T06:19:52;10.45;;;7.60;;
80195;SDS011;69516;42.050;21.516;2023-05-07T06:22:19;10.35;;;6.78;;
80195;SDS011;69516;42.050;21.516;2023-05-07T06:24:45;11.45;;;7.28;;
80195;SDS011;69516;42.050;21.516;2023-05-07T06:27:11;11.57;;;7.15;;
80195;SDS011;69516;42.050;21.516;2023-05-07T06:29:37;11.25;;;8.02;;
80195;SDS011;69516;42.050;21.516;2023-05-07T06:32:10;10.68;;;8.00;;
80195;SDS011;69516;42.050;21.516;2023-05-07T06:34:37;10.93;;;7.60;;
80195;SDS011;69516;42.050;21.516;2023-05-07T06:37:03;11.82;;;7.72;;
80195;SDS011;69516;42.050;21.516;2023-05-07T06:39:29;11.68;;;8.05;;
80195;SDS011;69516;42.050;21.516;2023-05-07T06:41:56;10.07;;;8.18;;
80195;SDS011;69516;42.050;21.516;2023-05-07T06:44:22;10.20;;;8.30;;
80195;SDS011;69516;42.050;21.516;2023-05-07T06:46:48;11.90;;;8.15;;
80195;SDS011;69516;42.050;21.516;2023-05-07T06:49:14;11.43;;;8.15;;
80195;SDS011;69516;42.050;21.516;2023-05-07T06:51:41;11.55;;;8.02;;
80195;SDS011;69516;42.050;21.516;2023-05-07T06:54:07;11.25;;;8.50;;
80195;SDS011;69516;42.050;21.516;2023-05-07T06:56:33;12.77;;;8.20;;
80195;SDS011;69516;42.050;21.516;2023-05-07T06:59:00;12.10;;;8.90;;
80195;SDS011;69516;42.050;21.516;2023-05-07T07:01:26;11.07;;;8.20;;
80195;SDS011;69516;42.050;21.516;2023-05-07T07:03:52;10.45;;;7.57;;
80195;SDS011;69516;42.050;21.516;2023-05-07T07:06:18;12.02;;;8.57;;
80195;SDS011;69516;42.050;21.516;2023-05-07T07:08:45;11.52;;;7.30;;
80195;SDS011;69516;42.050;21.516;2023-05-07T07:11:11;11.05;;;8.48;;
80195;SDS011;69516;42.050;21.516;2023-05-07T07:13:37;10.23;;;7.97;;
80195;SDS011;69516;42.050;21.516;2023-05-07T07:16:05;13.60;;;8.57;;
80195;SDS011;69516;42.050;21.516;2023-05-07T07:18:31;12.27;;;8.65;;
80195;SDS011;69516;42.050;21.516;2023-05-07T07:20:57;12.82;;;9.18;;
80195;SDS011;69516;42.050;21.516;2023-05-07T07:23:24;12.27;;;8.95;;
80195;SDS011;69516;42.050;21.516;2023-05-07T07:25:50;11.68;;;8.68;;
80195;SDS011;69516;42.050;21.516;2023-05-07T07:28:16;11.68;;;8.52;;
80195;SDS011;69516;42.050;21.516;2023-05-07T07:30:43;12.38;;;8.10;;
80195;SDS011;69516;42.050;21.516;2023-05-07T07:33:09;11.80;;;8.40;;
80195;SDS011;69516;42.050;21.516;2023-05-07T07:35:35;12.07;;;8.15;;
80195;SDS011;69516;42.050;21.516;2023-05-07T07:38:01;12.82;;;8.73;;
80195;SDS011;69516;42.050;21.516;2023-05-07T07:40:27;12.73;;;8.73;;
80195;SDS011;69516;42.050;21.516;2023-05-07T07:42:54;14.52;;;8.60;;
80195;SDS011;69516;42.050;21.516;2023-05-07T07:45:20;13.80;;;8.52;;
80195;SDS011;69516;42.050;21.516;2023-05-07T07:47:46;12.90;;;8.75;;
80195;SDS011;69516;42.050;21.516;2023-05-07T07:50:12;12.38;;;8.32;;
80195;SDS011;69516;42.050;21.516;2023-05-07T07:52:39;13.93;;;8.80;;
80195;SDS011;69516;42.050;21.516;2023-05-07T07:55:06;13.73;;;8.93;;
80195;SDS011;69516;42.050;21.516;2023-05-07T07:57:32;13.20;;;9.43;;
80195;SDS011;69516;42.050;21.516;2023-05-07T07:59:58;13.73;;;8.85;;
80195;SDS011;69516;42.050;21.516;2023-05-07T08:02:25;11.10;;;8.85;;
80195;SDS011;69516;42.050;21.516;2023-05-07T08:04:52;13.85;;;8.95;;
80195;SDS011;69516;42.050;21.516;2023-05-07T08:07:18;12.75;;;8.52;;
80195;SDS011;69516;42.050;21.516;2023-05-07T08:09:45;13.25;;;8.63;;
80195;SDS011;69516;42.050;21.516;2023-05-07T08:12:12;15.32;;;8.57;;
80195;SDS011;69516;42.050;21.516;2023-05-07T08:14:38;13.20;;;9.07;;
80195;SDS011;69516;42.050;21.516;2023-05-07T08:17:04;13.27;;;8.68;;
80195;SDS011;69516;42.050;21.516;2023-05-07T08:19:31;11.98;;;8.30;;
80195;SDS011;69516;42.050;21.516;2023-05-07T08:21:57;12.13;;;7.18;;
80195;SDS011;69516;42.050;21.516;2023-05-07T08:24:24;10.93;;;6.93;;
80195;SDS011;69516;42.050;21.516;2023-05-07T08:26:50;7.97;;;5.65;;
80195;SDS011;69516;42.050;21.516;2023-05-07T08:29:16;10.65;;;5.25;;
80195;SDS011;69516;42.050;21.516;2023-05-07T08:31:42;7.70;;;5.00;;
80195;SDS011;69516;42.050;21.516;2023-05-07T08:34:08;8.20;;;5.60;;
80195;SDS011;69516;42.050;21.516;2023-05-07T08:36:34;7.22;;;4.65;;
80195;SDS011;69516;42.050;21.516;2023-05-07T08:39:00;8.57;;;5.18;;
80195;SDS011;69516;42.050;21.516;2023-05-07T08:41:27;6.05;;;4.00;;
80195;SDS011;69516;42.050;21.516;2023-05-07T08:43:53;9.30;;;5.85;;
80195;SDS011;69516;42.050;21.516;2023-05-07T08:46:22;9.82;;;6.55;;
80195;SDS011;69516;42.050;21.516;2023-05-07T08:48:50;10.38;;;6.18;;
80195;SDS011;69516;42.050;21.516;2023-05-07T08:51:20;7.55;;;5.60;;
80195;SDS011;69516;42.050;21.516;2023-05-07T08:53:47;8.35;;;5.50;;
80195;SDS011;69516;42.050;21.516;2023-05-07T08:56:14;8.25;;;4.35;;
80195;SDS011;69516;42.050;21.516;2023-05-07T08:58:41;9.07;;;4.95;;
80195;SDS011;69516;42.050;21.516;2023-05-07T09:01:14;8.35;;;5.25;;
80195;SDS011;69516;42.050;21.516;2023-05-07T09:03:46;7.65;;;4.97;;
80195;SDS011;69516;42.050;21.516;2023-05-07T09:06:12;9.32;;;4.97;;
80195;SDS011;69516;42.050;21.516;2023-05-07T09:08:38;8.35;;;5.32;;
80195;SDS011;69516;42.050;21.516;2023-05-07T09:11:04;8.07;;;5.22;;
80195;SDS011;69516;42.050;21.516;2023-05-07T09:13:31;9.98;;;5.30;;
80195;SDS011;69516;42.050;21.516;2023-05-07T09:15:57;8.68;;;5.18;;
80195;SDS011;69516;42.050;21.516;2023-05-07T09:18:23;10.05;;;5.13;;
80195;SDS011;69516;42.050;21.516;2023-05-07T09:20:50;9.07;;;5.63;;
80195;SDS011;69516;42.050;21.516;2023-05-07T09:23:16;7.65;;;5.00;;
80195;SDS011;69516;42.050;21.516;2023-05-07T09:25:43;8.85;;;5.07;;
80195;SDS011;69516;42.050;21.516;2023-05-07T09:28:09;8.00;;;4.63;;
80195;SDS011;69516;42.050;21.516;2023-05-07T09:30:35;7.28;;;5.00;;
80195;SDS011;69516;42.050;21.516;2023-05-07T09:33:03;6.97;;;4.53;;
80195;SDS011;69516;42.050;21.516;2023-05-07T09:35:29;7.63;;;5.07;;
80195;SDS011;69516;42.050;21.516;2023-05-07T09:37:56;7.63;;;4.50;;
80195;SDS011;69516;42.050;21.516;2023-05-07T09:40:25;8.15;;;4.55;;
80195;SDS011;69516;42.050;21.516;2023-05-07T09:42:51;10.75;;;5.38;;
80195;SDS011;69516;42.050;21.516;2023-05-07T09:45:27;8.77;;;5.60;;
80195;SDS011;69516;42.050;21.516;2023-05-07T09:47:56;7.50;;;4.95;;
80195;SDS011;69516;42.050;21.516;2023-05-07T09:50:27;7.13;;;4.60;;
80195;SDS011;69516;42.050;21.516;2023-05-07T09:52:54;7.78;;;5.10;;
80195;SDS011;69516;42.050;21.516;2023-05-07T09:55:21;9.02;;;5.20;;
80195;SDS011;69516;42.050;21.516;2023-05-07T09:57:50;8.55;;;4.85;;
80195;SDS011;69516;42.050;21.516;2023-05-07T10:00:20;8.38;;;5.28;;
80195;SDS011;69516;42.050;21.516;2023-05-07T10:02:50;6.78;;;4.45;;
80195;SDS011;69516;42.050;21.516;2023-05-07T10:05:20;7.68;;;4.90;;
80195;SDS011;69516;42.050;21.516;2023-05-07T10:07:47;7.93;;;4.60;;
80195;SDS011;69516;42.050;21.516;2023-05-07T10:10:14;8.70;;;4.50;;
80195;SDS011;69516;42.050;21.516;2023-05-07T10:12:42;7.20;;;4.55;;
80195;SDS011;69516;42.050;21.516;2023-05-07T10:15:09;7.10;;;4.53;;
80195;SDS011;69516;42.050;21.516;2023-05-07T10:17:36;7.43;;;3.92;;
80195;SDS011;69516;42.050;21.516;2023-05-07T10:20:03;8.05;;;4.18;;
80195;SDS011;69516;42.050;21.516;2023-05-07T10:22:33;8.27;;;4.22;;
80195;SDS011;69516;42.050;21.516;2023-05-07T10:25:01;6.53;;;4.07;;
80195;SDS011;69516;42.050;21.516;2023-05-07T10:27:28;6.88;;;4.28;;
80195;SDS011;69516;42.050;21.516;2023-05-07T10:37:57;8.73;;;4.13;;
80195;SDS011;69516;42.050;21.516;2023-05-07T10:40:24;7.60;;;4.50;;
80195;SDS011;69516;42.050;21.516;2023-05-07T10:42:56;8.48;;;4.22;;
80195;SDS011;69516;42.050;21.516;2023-05-07T10:45:24;8.02;;;4.28;;
80195;SDS011;69516;42.050;21.516;2023-05-07T10:53:40;6.45;;;3.65;;
80195;SDS011;69516;42.050;21.516;2023-05-07T10:58:45;7.85;;;4.40;;
80195;SDS011;69516;42.050;21.516;2023-05-07T11:01:11;9.10;;;4.18;;
80195;SDS011;69516;42.050;21.516;2023-05-07T11:04:13;8.77;;;4.32;;
80195;SDS011;69516;42.050;21.516;2023-05-07T11:06:31;5.95;;;3.85;;
80195;SDS011;69516;42.050;21.516;2023-05-07T11:08:59;6.55;;;3.67;;
80195;SDS011;69516;42.050;21.516;2023-05-07T11:14:11;5.13;;;3.30;;
80195;SDS011;69516;42.050;21.516;2023-05-07T11:16:37;6.30;;;3.50;;
80195;SDS011;69516;42.050;21.516;2023-05-07T11:19:04;6.43;;;3.50;;
80195;SDS011;69516;42.050;21.516;2023-05-07T11:38:51;6.25;;;3.90;;
80195;SDS011;69516;42.050;21.516;2023-05-07T11:41:17;6.68;;;3.47;;
80195;SDS011;69516;42.050;21.516;2023-05-07T11:43:55;7.85;;;3.65;;
80195;SDS011;69516;42.050;21.516;2023-05-07T11:46:22;5.80;;;3.47;;
80195;SDS011;69516;42.050;21.516;2023-05-07T11:48:48;6.25;;;3.30;;
80195;SDS011;69516;42.050;21.516;2023-05-07T11:51:18;5.22;;;3.47;;
80195;SDS011;69516;42.050;21.516;2023-05-07T11:53:45;5.57;;;3.30;;
80195;SDS011;69516;42.050;21.516;2023-05-07T11:56:12;8.32;;;3.50;;
80195;SDS011;69516;42.050;21.516;2023-05-07T11:58:39;5.57;;;3.35;;
80195;SDS011;69516;42.050;21.516;2023-05-07T12:01:07;5.10;;;3.13;;
80195;SDS011;69516;42.050;21.516;2023-05-07T12:03:34;6.30;;;3.60;;
80195;SDS011;69516;42.050;21.516;2023-05-07T12:06:02;8.00;;;3.42;;
80195;SDS011;69516;42.050;21.516;2023-05-07T12:08:28;5.55;;;3.13;;
80195;SDS011;69516;42.050;21.516;2023-05-07T12:10:55;5.10;;;3.33;;
80195;SDS011;69516;42.050;21.516;2023-05-07T12:13:22;7.13;;;3.50;;
80195;SDS011;69516;42.050;21.516;2023-05-07T12:15:52;6.47;;;3.58;;
80195;SDS011;69516;42.050;21.516;2023-05-07T12:18:18;5.30;;;3.25;;
80195;SDS011;69516;42.050;21.516;2023-05-07T12:20:45;5.05;;;3.40;;
80195;SDS011;69516;42.050;21.516;2023-05-07T12:23:12;6.25;;;3.60;;
80195;SDS011;69516;42.050;21.516;2023-05-07T12:25:38;8.73;;;5.75;;
80195;SDS011;69516;42.050;21.516;2023-05-07T12:28:07;6.50;;;3.50;;
80195;SDS011;69516;42.050;21.516;2023-05-07T12:30:37;6.97;;;3.75;;
80195;SDS011;69516;42.050;21.516;2023-05-07T12:33:03;6.30;;;3.60;;
80195;SDS011;69516;42.050;21.516;2023-05-07T12:35:30;5.10;;;3.08;;
80195;SDS011;69516;42.050;21.516;2023-05-07T12:38:00;5.63;;;3.65;;
80195;SDS011;69516;42.050;21.516;2023-05-07T12:40:39;6.47;;;3.60;;
80195;SDS011;69516;42.050;21.516;2023-05-07T12:43:05;5.50;;;3.35;;
80195;SDS011;69516;42.050;21.516;2023-05-07T12:45:36;4.93;;;3.03;;
80195;SDS011;69516;42.050;21.516;2023-05-07T12:48:03;5.38;;;3.25;;
80195;SDS011;69516;42.050;21.516;2023-05-07T12:50:32;5.75;;;3.22;;
80195;SDS011;69516;42.050;21.516;2023-05-07T12:52:59;5.57;;;3.38;;
80195;SDS011;69516;42.050;21.516;2023-05-07T12:55:25;5.97;;;3.55;;
80195;SDS011;69516;42.050;21.516;2023-05-07T12:57:52;5.88;;;3.00;;
80195;SDS011;69516;42.050;21.516;2023-05-07T13:00:34;6.55;;;3.20;;
80195;SDS011;69516;42.050;21.516;2023-05-07T13:03:01;6.20;;;3.60;;
80195;SDS011;69516;42.050;21.516;2023-05-07T13:05:27;5.90;;;3.60;;
80195;SDS011;69516;42.050;21.516;2023-05-07T13:07:53;6.20;;;3.80;;
80195;SDS011;69516;42.050;21.516;2023-05-07T13:10:21;6.28;;;3.45;;
80195;SDS011;69516;42.050;21.516;2023-05-07T13:12:48;6.05;;;3.63;;
80195;SDS011;69516;42.050;21.516;2023-05-07T13:15:14;6.53;;;3.80;;
80195;SDS011;69516;42.050;21.516;2023-05-07T13:17:40;5.75;;;3.65;;
80195;SDS011;69516;42.050;21.516;2023-05-07T13:20:08;6.50;;;3.67;;
80195;SDS011;69516;42.050;21.516;2023-05-07T13:22:35;5.75;;;4.05;;
80195;SDS011;69516;42.050;21.516;2023-05-07T13:25:01;6.10;;;3.47;;
80195;SDS011;69516;42.050;21.516;2023-05-07T13:27:27;6.78;;;3.92;;
80195;SDS011;69516;42.050;21.516;2023-05-07T13:29:55;6.20;;;3.53;;
80195;SDS011;69516;42.050;21.516;2023-05-07T13:32:22;6.90;;;3.70;;
80195;SDS011;69516;42.050;21.516;2023-05-07T13:34:48;5.65;;;3.85;;
80195;SDS011;69516;42.050;21.516;2023-05-07T13:37:14;5.90;;;3.50;;
80195;SDS011;69516;42.050;21.516;2023-05-07T13:39:41;5.65;;;3.63;;
80195;SDS011;69516;42.050;21.516;2023-05-07T13:42:07;6.03;;;3.88;;
80195;SDS011;69516;42.050;21.516;2023-05-07T13:44:33;4.78;;;3.35;;
80195;SDS011;69516;42.050;21.516;2023-05-07T13:46:59;8.23;;;3.55;;
80195;SDS011;69516;42.050;21.516;2023-05-07T13:49:25;5.30;;;3.47;;
80195;SDS011;69516;42.050;21.516;2023-05-07T13:51:51;7.07;;;3.97;;
80195;SDS011;69516;42.050;21.516;2023-05-07T13:54:17;6.50;;;3.90;;
80195;SDS011;69516;42.050;21.516;2023-05-07T13:56:44;7.05;;;3.40;;
80195;SDS011;69516;42.050;21.516;2023-05-07T13:59:10;6.78;;;3.80;;
80195;SDS011;69516;42.050;21.516;2023-05-07T14:01:37;7.43;;;3.70;;
80195;SDS011;69516;42.050;21.516;2023-05-07T14:04:03;6.47;;;4.10;;
80195;SDS011;69516;42.050;21.516;2023-05-07T14:06:30;5.72;;;3.53;;
80195;SDS011;69516;42.050;21.516;2023-05-07T14:08:56;5.22;;;3.63;;
80195;SDS011;69516;42.050;21.516;2023-05-07T14:11:23;6.35;;;4.20;;
80195;SDS011;69516;42.050;21.516;2023-05-07T14:13:49;6.95;;;4.38;;
80195;SDS011;69516;42.050;21.516;2023-05-07T14:16:15;6.78;;;3.58;;
80195;SDS011;69516;42.050;21.516;2023-05-07T14:18:42;6.25;;;3.85;;
80195;SDS011;69516;42.050;21.516;2023-05-07T14:21:08;6.10;;;3.75;;
80195;SDS011;69516;42.050;21.516;2023-05-07T14:23:37;7.50;;;3.90;;
80195;SDS011;69516;42.050;21.516;2023-05-07T14:26:03;6.38;;;3.55;;
80195;SDS011;69516;42.050;21.516;2023-05-07T14:28:29;5.45;;;3.42;;
80195;SDS011;69516;42.050;21.516;2023-05-07T14:30:56;13.05;;;6.00;;
80195;SDS011;69516;42.050;21.516;2023-05-07T14:33:22;7.43;;;3.70;;
80195;SDS011;69516;42.050;21.516;2023-05-07T14:35:48;8.57;;;4.57;;
80195;SDS011;69516;42.050;21.516;2023-05-07T14:38:15;7.80;;;3.83;;
80195;SDS011;69516;42.050;21.516;2023-05-07T14:40:41;5.40;;;3.35;;
80195;SDS011;69516;42.050;21.516;2023-05-07T14:43:07;6.72;;;3.72;;
80195;SDS011;69516;42.050;21.516;2023-05-07T14:45:33;6.30;;;3.83;;
80195;SDS011;69516;42.050;21.516;2023-05-07T14:48:00;5.35;;;3.65;;
80195;SDS011;69516;42.050;21.516;2023-05-07T14:50:26;6.13;;;3.67;;
80195;SDS011;69516;42.050;21.516;2023-05-07T14:52:52;5.55;;;3.60;;
80195;SDS011;69516;42.050;21.516;2023-05-07T14:55:18;6.82;;;3.67;;
80195;SDS011;69516;42.050;21.516;2023-05-07T14:57:45;8.02;;;3.90;;
80195;SDS011;69516;42.050;21.516;2023-05-07T15:00:11;6.00;;;3.63;;
80195;SDS011;69516;42.050;21.516;2023-05-07T15:02:38;5.97;;;3.63;;